Time,TemperatureF,DewpointF,PressureIn,WindDirection,WindDirectionDegrees,WindSpeedMPH,WindSpeedGustMPH,Humidity,HourlyPrecipIn,Conditions,Clouds,dailyrainin,SolarRadiationWatts/m^2,SoftwareType,DateUTC
2013-08-22 00:00:00,72.0,40.0,-100.00,WNW,298,8.0,12.0,31,0.00,,,0.00,0.000000,,2013-08-22 07:00:00,
2013-08-22 00:42:00,72.0,40.0,-100.00,WNW,298,8.0,12.0,31,0.00,,,0.00,0.000000,,2013-08-22 07:42:00,
2013-08-22 00:52:00,72.0,40.0,-100.00,WNW,298,8.0,12.0,31,0.00,,,0.00,0.000000,,2013-08-22 07:52:00,
2013-08-22 01:00:00,71.0,40.0,-100.00,WNW,294,9.0,14.0,32,0.00,,,0.00,0.000000,,2013-08-22 08:00:00,
2013-08-22 01:23:00,71.0,40.0,-100.00,WNW,294,9.0,14.0,32,0.00,,,0.00,0.000000,,2013-08-22 08:23:00,
2013-08-22 01:33:00,71.0,40.0,-100.00,WNW,294,9.0,14.0,32,0.00,,,0.00,0.000000,,2013-08-22 08:33:00,
2013-08-22 01:53:00,71.0,40.0,-100.00,WNW,294,9.0,14.0,32,0.00,,,0.00,0.000000,,2013-08-22 08:53:00,
2013-08-22 02:00:00,70.0,40.0,-100.00,WNW,286,8.0,14.0,34,0.00,,,0.00,0.000000,,2013-08-22 09:00:00,
2013-08-22 02:43:00,70.0,40.0,-100.00,WNW,286,8.0,14.0,34,0.00,,,0.00,0.000000,,2013-08-22 09:43:00,
2013-08-22 02:54:00,70.0,40.0,-100.00,WNW,286,8.0,14.0,34,0.00,,,0.00,0.000000,,2013-08-22 09:54:00,
2013-08-22 03:00:00,69.0,41.0,-100.00,WNW,288,8.0,13.0,36,0.00,,,0.00,0.000000,,2013-08-22 10:00:00,
2013-08-22 03:42:00,69.0,41.0,-100.00,WNW,288,8.0,13.0,36,0.00,,,0.00,0.000000,,2013-08-22 10:42:00,
2013-08-22 05:00:00,70.0,42.0,-100.00,WNW,295,7.0,18.0,36,0.00,,,0.00,0.000000,,2013-08-22 12:00:00,
2013-08-22 05:42:00,70.0,42.0,-100.00,WNW,295,7.0,18.0,36,0.00,,,0.00,0.000000,,2013-08-22 12:42:00,
2013-08-22 05:52:00,70.0,42.0,-100.00,WNW,295,7.0,18.0,36,0.00,,,0.00,0.000000,,2013-08-22 12:52:00,
2013-08-22 06:00:00,68.0,41.0,-100.00,WNW,292,8.0,10.0,37,0.00,,,0.00,0.000000,,2013-08-22 13:00:00,
2013-08-22 06:42:00,68.0,41.0,-100.00,WNW,292,8.0,10.0,37,0.00,,,0.00,0.000000,,2013-08-22 13:42:00,
2013-08-22 06:52:00,68.0,41.0,-100.00,WNW,292,8.0,10.0,37,0.00,,,0.00,0.000000,,2013-08-22 13:52:00,
2013-08-22 07:00:00,69.0,42.0,-100.00,WNW,294,8.0,12.0,38,0.00,,,0.00,0.000000,,2013-08-22 14:00:00,
2013-08-22 07:42:00,69.0,42.0,-100.00,WNW,294,8.0,12.0,38,0.00,,,0.00,0.000000,,2013-08-22 14:42:00,
2013-08-22 07:52:00,69.0,42.0,-100.00,WNW,294,8.0,12.0,38,0.00,,,0.00,0.000000,,2013-08-22 14:52:00,
2013-08-22 08:43:00,71.0,40.0,-100.00,WNW,287,4.0,15.0,33,0.00,,,0.00,45.000000,,2013-08-22 15:43:00,
2013-08-22 09:00:00,81.0,44.0,-100.00,ESE,111,1.0,8.0,27,0.00,,,0.00,310.000000,,2013-08-22 16:00:00,
2013-08-22 09:43:00,81.0,44.0,-100.00,ESE,111,1.0,8.0,27,0.00,,,0.00,310.000000,,2013-08-22 16:43:00,
2013-08-22 09:54:00,81.0,44.0,-100.00,ESE,111,1.0,8.0,27,0.00,,,0.00,310.000000,,2013-08-22 16:54:00,
2013-08-22 10:00:00,84.0,44.0,-100.00,East,95,4.0,6.0,25,0.00,,,-99.99,535.000000,,2013-08-22 17:00:00,
2013-08-22 10:24:00,84.0,44.0,-100.00,East,95,4.0,6.0,25,0.00,,,-99.99,535.000000,,2013-08-22 17:24:00,
2013-08-22 10:33:00,84.0,44.0,-100.00,East,95,4.0,6.0,25,0.00,,,-99.99,535.000000,,2013-08-22 17:33:00,
2013-08-22 10:43:00,84.0,44.0,-100.00,East,95,4.0,6.0,25,0.00,,,-99.99,535.000000,,2013-08-22 17:43:00,
2013-08-22 10:53:00,84.0,44.0,-100.00,East,95,4.0,6.0,25,0.00,,,-99.99,535.000000,,2013-08-22 17:53:00,
2013-08-22 11:00:00,88.0,42.0,-100.00,ESE,103,4.0,9.0,20,0.00,,,0.00,799.000000,,2013-08-22 18:00:00,
2013-08-22 11:43:00,88.0,42.0,-100.00,ESE,103,4.0,9.0,20,0.00,,,0.00,799.000000,,2013-08-22 18:43:00,
2013-08-22 11:52:00,88.0,42.0,-100.00,ESE,103,4.0,9.0,20,0.00,,,0.00,799.000000,,2013-08-22 18:52:00,
2013-08-22 12:00:00,92.0,41.0,-100.00,ESE,108,8.0,14.0,17,0.00,,,0.00,1023.000000,,2013-08-22 19:00:00,
2013-08-22 12:22:00,92.0,41.0,-100.00,ESE,108,8.0,14.0,17,0.00,,,0.00,1023.000000,,2013-08-22 19:22:00,
2013-08-22 12:33:00,92.0,41.0,-100.00,ESE,108,8.0,14.0,17,0.00,,,0.00,1023.000000,,2013-08-22 19:33:00,
2013-08-22 12:42:00,92.0,41.0,-100.00,ESE,108,8.0,14.0,17,0.00,,,0.00,1023.000000,,2013-08-22 19:42:00,
2013-08-22 12:53:00,92.0,41.0,-100.00,ESE,108,8.0,14.0,17,0.00,,,0.00,1023.000000,,2013-08-22 19:53:00,
2013-08-22 13:00:00,95.0,36.0,-100.00,ESE,107,10.0,16.0,13,0.00,,,0.00,1183.000000,,2013-08-22 20:00:00,
2013-08-22 13:23:00,95.0,36.0,-100.00,ESE,107,10.0,16.0,13,0.00,,,0.00,1183.000000,,2013-08-22 20:23:00,
2013-08-22 13:32:00,95.0,36.0,-100.00,ESE,107,10.0,16.0,13,0.00,,,0.00,1183.000000,,2013-08-22 20:32:00,
2013-08-22 13:42:00,95.0,36.0,-100.00,ESE,107,10.0,16.0,13,0.00,,,0.00,1183.000000,,2013-08-22 20:42:00,
2013-08-22 13:52:00,95.0,36.0,-100.00,ESE,107,10.0,16.0,13,0.00,,,0.00,1183.000000,,2013-08-22 20:52:00,
2013-08-22 14:00:00,97.0,31.0,-100.00,SSW,211,6.0,18.0,10,0.00,,,0.00,1268.000000,,2013-08-22 21:00:00,
2013-08-22 14:22:00,97.0,31.0,-100.00,SSW,211,6.0,18.0,10,0.00,,,0.00,1268.000000,,2013-08-22 21:22:00,
2013-08-22 14:34:00,97.0,31.0,-100.00,SSW,211,6.0,18.0,10,0.00,,,0.00,1268.000000,,2013-08-22 21:34:00,
2013-08-22 14:44:00,97.0,31.0,-100.00,SSW,211,6.0,18.0,10,0.00,,,0.00,1268.000000,,2013-08-22 21:44:00,
2013-08-22 14:54:00,97.0,31.0,-100.00,SSW,211,6.0,18.0,10,0.00,,,0.00,1268.000000,,2013-08-22 21:54:00,
2013-08-22 15:00:00,97.0,34.0,-100.00,SW,222,6.0,23.0,11,0.00,,,0.00,1267.000000,,2013-08-22 22:00:00,
2013-08-22 15:25:00,97.0,34.0,-100.00,SW,222,6.0,23.0,11,0.00,,,0.00,1267.000000,,2013-08-22 22:25:00,
2013-08-22 15:34:00,97.0,34.0,-100.00,SW,222,6.0,23.0,11,0.00,,,0.00,1267.000000,,2013-08-22 22:34:00,
2013-08-22 15:42:00,97.0,34.0,-100.00,SW,222,6.0,23.0,11,0.00,,,0.00,1267.000000,,2013-08-22 22:42:00,
2013-08-22 15:53:00,97.0,34.0,-100.00,SW,222,6.0,23.0,11,0.00,,,0.00,1267.000000,,2013-08-22 22:53:00,
2013-08-22 16:00:00,95.0,32.0,-100.00,SW,223,7.0,21.0,11,0.00,,,0.00,1179.000000,,2013-08-22 23:00:00,
2013-08-22 16:23:00,95.0,32.0,-100.00,SW,223,7.0,21.0,11,0.00,,,0.00,1179.000000,,2013-08-22 23:23:00,
2013-08-22 16:33:00,95.0,32.0,-100.00,SW,223,7.0,21.0,11,0.00,,,0.00,1179.000000,,2013-08-22 23:33:00,
2013-08-22 16:42:00,95.0,32.0,-100.00,SW,223,7.0,21.0,11,0.00,,,0.00,1179.000000,,2013-08-22 23:42:00,
2013-08-22 16:52:00,95.0,32.0,-100.00,SW,223,7.0,21.0,11,0.00,,,0.00,1179.000000,,2013-08-22 23:52:00,
2013-08-22 17:00:00,95.0,32.0,-100.00,WSW,245,6.0,20.0,11,0.00,,,0.00,1012.000000,,2013-08-23 00:00:00,
2013-08-22 17:23:00,95.0,32.0,-100.00,WSW,245,6.0,20.0,11,0.00,,,0.00,1012.000000,,2013-08-23 00:23:00,
2013-08-22 17:33:00,95.0,32.0,-100.00,WSW,245,6.0,20.0,11,0.00,,,0.00,1012.000000,,2013-08-23 00:33:00,
2013-08-22 17:42:00,95.0,32.0,-100.00,WSW,245,6.0,20.0,11,0.00,,,0.00,1012.000000,,2013-08-23 00:42:00,
2013-08-22 17:52:00,95.0,32.0,-100.00,WSW,245,6.0,20.0,11,0.00,,,0.00,1012.000000,,2013-08-23 00:52:00,
2013-08-22 18:00:00,93.0,33.0,-100.00,West,280,5.0,17.0,12,0.00,,,0.00,788.000000,,2013-08-23 01:00:00,
2013-08-22 18:22:00,93.0,33.0,-100.00,West,280,5.0,17.0,12,0.00,,,0.00,788.000000,,2013-08-23 01:22:00,
2013-08-22 18:33:00,93.0,33.0,-100.00,West,280,5.0,17.0,12,0.00,,,0.00,788.000000,,2013-08-23 01:33:00,
2013-08-22 18:42:00,93.0,33.0,-100.00,West,280,5.0,17.0,12,0.00,,,0.00,788.000000,,2013-08-23 01:42:00,
2013-08-22 18:52:00,93.0,33.0,-100.00,West,280,5.0,17.0,12,0.00,,,0.00,788.000000,,2013-08-23 01:52:00,
2013-08-22 19:00:00,90.0,41.0,-100.00,West,263,7.0,13.0,18,0.00,,,0.00,510.000000,,2013-08-23 02:00:00,
2013-08-22 19:23:00,90.0,41.0,-100.00,West,263,7.0,13.0,18,0.00,,,0.00,510.000000,,2013-08-23 02:23:00,
2013-08-22 19:33:00,90.0,41.0,-100.00,West,263,7.0,13.0,18,0.00,,,0.00,510.000000,,2013-08-23 02:33:00,
2013-08-22 19:43:00,90.0,41.0,-100.00,West,263,7.0,13.0,18,0.00,,,0.00,510.000000,,2013-08-23 02:43:00,
2013-08-22 19:52:00,90.0,41.0,-100.00,West,263,7.0,13.0,18,0.00,,,0.00,510.000000,,2013-08-23 02:52:00,
2013-08-22 20:00:00,82.0,43.0,-100.00,West,272,9.0,13.0,25,0.00,,,0.00,102.000000,,2013-08-23 03:00:00,
2013-08-22 20:44:00,82.0,43.0,-100.00,West,272,9.0,13.0,25,0.00,,,0.00,102.000000,,2013-08-23 03:44:00,
2013-08-22 20:55:00,82.0,43.0,-100.00,West,272,9.0,13.0,25,0.00,,,0.00,102.000000,,2013-08-23 03:55:00,
2013-08-22 21:00:00,77.0,41.0,-100.00,WNW,286,8.0,15.0,28,0.00,,,0.00,7.000000,,2013-08-23 04:00:00,
2013-08-22 21:24:00,77.0,41.0,-100.00,WNW,286,8.0,15.0,28,0.00,,,0.00,7.000000,,2013-08-23 04:24:00,
2013-08-22 21:34:00,77.0,41.0,-100.00,WNW,286,8.0,15.0,28,0.00,,,0.00,7.000000,,2013-08-23 04:34:00,
2013-08-22 21:43:00,77.0,41.0,-100.00,WNW,286,8.0,15.0,28,0.00,,,0.00,7.000000,,2013-08-23 04:43:00,
2013-08-22 21:54:00,77.0,41.0,-100.00,WNW,286,8.0,15.0,28,0.00,,,0.00,7.000000,,2013-08-23 04:54:00,
2013-08-22 22:00:00,75.0,39.0,-100.00,WNW,287,9.0,16.0,27,0.00,,,0.00,0.000000,,2013-08-23 05:00:00,
2013-08-22 22:22:00,75.0,39.0,-100.00,WNW,287,9.0,16.0,27,0.00,,,0.00,0.000000,,2013-08-23 05:22:00,
2013-08-22 22:34:00,75.0,39.0,-100.00,WNW,287,9.0,16.0,27,0.00,,,0.00,0.000000,,2013-08-23 05:34:00,
2013-08-22 22:42:00,75.0,39.0,-100.00,WNW,287,9.0,16.0,27,0.00,,,0.00,0.000000,,2013-08-23 05:42:00,
2013-08-22 22:52:00,75.0,39.0,-100.00,WNW,287,9.0,16.0,27,0.00,,,0.00,0.000000,,2013-08-23 05:52:00,
2013-08-22 23:00:00,74.0,38.0,-100.00,WNW,290,9.0,17.0,27,0.00,,,0.00,0.000000,,2013-08-23 06:00:00,
2013-08-22 23:42:00,74.0,38.0,-100.00,WNW,290,9.0,17.0,27,0.00,,,0.00,0.000000,,2013-08-23 06:42:00,
2013-08-22 23:52:00,74.0,38.0,-100.00,WNW,290,9.0,17.0,27,0.00,,,0.00,0.000000,,2013-08-23 06:52:00,